You must use a browser capable of displaying tables to view this page.

The table shows the data used to make the storm track maps. Click on the storm name in the first row to get a close up view of the storm track.

Name Date Time (UT) Lat (degrees) Lon (degrees) Course (true) Speed (knots) Pressure (mb) Wind (knots) Gusts (knots) Type Actual / Forecast WMO
MUIFA 2011-07-25 12:00 5.6N 147.2E 315 04 ??? 025 035 DEP ACT WTPN32
MUIFA 2011-07-25 18:00 5.7N 145.6E 285 12 ??? 030 040 DEP ACT WTPN32
MUIFA 2011-07-26 00:00 6.1N 144.4E 290 13 ??? 030 040 DEP ACT WTPN32
MUIFA 2011-07-26 06:00 8.1N 143.3E 310 18 ??? 030 040 DEP ACT WTPN32
MUIFA 2011-07-26 12:00 8.9N 142.4E 310 12 ??? 030 040 DEP ACT WTPN32
MUIFA 2011-07-26 18:00 9.4N 141.4E 295 11 ??? 030 040 DEP ACT WTPN32
MUIFA 2011-07-27 00:00 10.0N 141.8E 325 07 ??? 030 040 DEP ACT WTPN32
MUIFA 2011-07-27 06:00 10.5N 140.9E 300 10 ??? 030 040 DEP ACT WTPN32
MUIFA 2011-07-27 12:00 11.1N 139.7E 295 13 ??? 030 040 DEP ACT WTPN32
MUIFA 2011-07-27 18:00 12.5N 138.3E 305 16 ??? 030 040 DEP ACT WTPN32
MUIFA 2011-07-28 00:00 13.0N 136.9E 290 15 ??? 035 045 STO ACT WTPN32
MUIFA 2011-07-28 06:00 11.9N 135.0E 265 16 ??? 040 050 STO ACT WTPN32
MUIFA 2011-07-28 12:00 12.3N 133.8E 290 12 ??? 040 050 STO ACT WTPN32
MUIFA 2011-07-28 18:00 12.3N 133.7E 295 09 ??? 045 055 STO ACT WTPN32
MUIFA 2011-07-29 00:00 12.6N 133.7E 325 05 ??? 050 065 STO ACT WTPN32
MUIFA 2011-07-29 06:00 13.5N 133.9E 360 06 ??? 050 065 STO ACT WTPN32
MUIFA 2011-07-29 12:00 14.1N 133.9E 360 06 ??? 055 070 STO ACT WTPN32
MUIFA 2011-07-29 18:00 14.7N 134.0E 005 08 ??? 055 070 STO ACT WTPN32
MUIFA 2011-07-30 00:00 15.8N 134.0E 360 11 ??? 060 075 STO ACT WTPN32
MUIFA 2011-07-30 06:00 16.2N 133.0E 305 11 ??? 085 105 TYP ACT WTPN32
MUIFA 2011-07-30 12:00 16.5N 132.7E 315 04 ??? 115 140 TYP ACT WTPN32
MUIFA 2011-07-30 18:00 16.6N 132.4E 290 03 ??? 140 170 TYP ACT WTPN32
MUIFA 2011-07-31 00:00 16.8N 132.6E 045 03 ??? 135 165 TYP ACT WTPN32
MUIFA 2011-07-31 06:00 17.1N 132.9E 045 04 ??? 125 150 TYP ACT WTPN32
MUIFA 2011-07-31 12:00 17.7N 133.5E 045 08 ??? 125 150 TYP ACT WTPN32
MUIFA 2011-07-31 18:00 18.5N 133.5E 360 08 ??? 120 145 TYP ACT WTPN32
MUIFA 2011-08-01 00:00 18.9N 133.7E 025 04 ??? 120 145 TYP ACT WTPN32
MUIFA 2011-08-01 06:00 19.7N 134.1E 025 09 ??? 110 135 TYP ACT WTPN32
MUIFA 2011-08-01 12:00 20.6N 134.1E 360 09 ??? 110 135 TYP ACT WTPN32
MUIFA 2011-08-01 18:00 21.5N 134.2E 005 09 ??? 110 135 TYP ACT WTPN32
MUIFA 2011-08-02 00:00 22.3N 134.1E 355 08 ??? 110 135 TYP ACT WTPN32
MUIFA 2011-08-02 06:00 22.7N 134.1E 360 06 ??? 110 135 TYP ACT WTPN32
MUIFA 2011-08-02 12:00 23.3N 133.8E 335 07 ??? 110 135 TYP ACT WTPN32
MUIFA 2011-08-02 18:00 23.8N 133.2E 310 07 ??? 110 135 TYP ACT WTPN32
MUIFA 2011-08-03 00:00 24.2N 132.6E 305 07 ??? 110 135 TYP ACT WTPN32
MUIFA 2011-08-03 06:00 24.3N 132.1E 295 05 ??? 105 130 TYP ACT WTPN32
MUIFA 2011-08-03 12:00 24.4N 131.4E 280 06 ??? 095 115 TYP ACT WTPN32
MUIFA 2011-08-03 18:00 24.5N 130.5E 275 08 ??? 095 115 TYP ACT WTPN32
MUIFA 2011-08-04 00:00 24.6N 129.6E 275 08 ??? 090 110 TYP ACT WTPN32
MUIFA 2011-08-04 06:00 24.7N 129.2E 280 06 ??? 090 110 TYP ACT WTPN32
MUIFA 2011-08-04 12:00 24.9N 128.6E 290 06 ??? 090 110 TYP ACT WTPN32
MUIFA 2011-08-04 18:00 25.1N 128.1E 295 05 ??? 085 105 TYP ACT WTPN32
MUIFA 2011-08-05 00:00 25.2N 127.9E 300 04 ??? 085 105 TYP ACT WTPN32
MUIFA 2011-08-05 06:00 25.8N 127.2E 315 07 ??? 085 105 TYP ACT WTPN32
MUIFA 2011-08-05 12:00 26.1N 126.8E 310 05 ??? 080 100 TYP ACT WTPN32
MUIFA 2011-08-05 18:00 26.5N 126.4E 320 05 ??? 080 100 TYP ACT WTPN32
MUIFA 2011-08-06 00:00 27.7N 125.6E 330 08 ??? 070 085 TYP ACT WTPN32
MUIFA 2011-08-06 06:00 28.7N 125.2E 340 11 ??? 065 080 TYP ACT WTPN32
MUIFA 2011-08-06 12:00 29.4N 124.9E 340 07 ??? 065 080 TYP ACT WTPN32
MUIFA 2011-08-06 18:00 30.5N 124.4E 340 12 ??? 065 080 TYP ACT WTPN32
MUIFA 2011-08-07 00:00 32.1N 124.0E 350 16 ??? 060 075 STO ACT WTPN32
MUIFA 2011-08-07 06:00 33.1N 123.9E 355 14 ??? 060 075 STO ACT WTPN32
MUIFA 2011-08-07 12:00 34.5N 123.9E 360 14 ??? 055 070 STO ACT WTPN32
MUIFA 2011-08-07 18:00 36.0N 123.8E 355 15 ??? 055 070 STO ACT WTPN32
MUIFA 2011-08-08 00:00 37.5N 123.9E 005 15 ??? 055 070 STO ACT WTPN32
MUIFA 2011-08-08 06:00 38.7N 124.0E 005 12 ??? 050 065 STO ACT WTPN32
MUIFA 2011-08-08 12:00 40.3N 124.9E 025 17 ??? 040 050 STO ACT WTPN32
MUIFA 2011-08-09 00:00 43.2N 126.8E ??? ??? ??? 030 040 ??? FOR WTPN32
MUIFA 2011-08-09 12:00 45.4N 130.1E ??? ??? ??? 025 035 ??? FOR WTPN32
MUIFA 2011-08-10 00:00 47.0N 133.9E ??? ??? ??? 020 030 ??? FOR WTPN32


Home Back

metcalf@akala.ifa.hawaii.edu